Princeton's Hourly Summary for Saturday, July 7, 2018
Hour Temp
(f)
RH
(%)
Solar Rad.
(MJ/m2)
Rainfall
(in)
Wind
(mph)
7/7/2018 12:00 AM 75 88 0 0.01 1.5
7/7/2018 1:00 AM 74 88 0 0.01 1.32
7/7/2018 2:00 AM 74 99 0 0 0.58
7/7/2018 3:00 AM 73 99 0 0.01 0.26
7/7/2018 4:00 AM 72 99 0 0 0.61
7/7/2018 5:00 AM 71 99 0 0 0.61
7/7/2018 6:00 AM 71 99 0 0 0.21
7/7/2018 7:00 AM 71 99 0.04 0 0.44
7/7/2018 8:00 AM 72 93 0.27 0 1.42
7/7/2018 9:00 AM 76 72 1.13 0 2.56
7/7/2018 10:00 AM 81 63 1.82 0 2.09
7/7/2018 11:00 AM 84 56 2.42 0 2.6
7/7/2018 12:00 PM 87 51 2.91 0 3.3
7/7/2018 1:00 PM 89 44 3.16 0 2.78
7/7/2018 2:00 PM 91 41 2.78 0 2.47
7/7/2018 3:00 PM 92 38 3.03 0 3.4
7/7/2018 4:00 PM 93 37 2.73 0 3.48
7/7/2018 5:00 PM 92 36 2.19 0 3.75
7/7/2018 6:00 PM 90 45 1.48 0 3.79
7/7/2018 7:00 PM 91 41 1.14 0 2.92
7/7/2018 8:00 PM 90 41 0.45 0 2.26
7/7/2018 9:00 PM 86 50 0.03 0 1.49
7/7/2018 10:00 PM 82 58 0 0 1.83
7/7/2018 11:00 PM 81 62 0 0 0.39
Data Summary 81 66 25.58 0.03 1.92